Villa Ridge, Missouri
Current Conditions -  °F | °C
As of 8:35 PM on Tuesday 21 Oct 2014 (Local Time) from KFYG Reporting Station
Clear Clear  
Wind Chill: 57°   Ceiling: Unl
Heat Index: 57°   Visibility: 10mi
Dew Point: 41°   Wind: 3mph
Humidity: 55%   Direction: 60°ENE
Pressure: 30.14"   Gusts: NA
Location:  38.47°N, 90.89°W
Report Text: KFYG 220135Z AUTO 06003KT 10SM CLR 14/05 A3014 RMK AO2
Loading
Personal Weather Stations






























Interactive Weather Map New forecast layout! Learn more

10-Day Weather Forecast

Advertisements
Track Severe Weather on mobile